Main page
Satellite images 10-day forecastsClimateMarine weather Cyclones Lightning AirportsFAQ Newsletter About
Weather : Europe Africa North America South America Asia Australia-Oceania Others
Languages Contact

Buenos Aires, Argentina

Aeroparque Jorge Newbery

latitude: 34-34S, longitude: 058-25W, elevation: 6 m


METAR: SABE 250800Z 29006KT CAVOK 18/12 Q1019
TAF: SABE 250500Z 2506/2606 32005KT CAVOK TX26/2518Z TN14/2509Z BECMG 2508/2510 8000 VA NSC BECMG 2512/2514 34010KT CAVOK

Time: 05:45 (08:45 UTC)

Current weather observation

The report was made 45 minutes ago, at 08:00 UTC
Wind 6 kt from the West/Northwest
Temperature 18°C
Humidity 68%
Pressure 1019 hPa
Visibility 10 km or more
no clouds below 1500 m and no cumulonimbus

Change units

Forecast

The report was made 3 hours and 45 minutes ago, at 05:00 UTC
Forecast valid from 25 at 06 UTC to 26 at 06 UTC
Wind 5 kt from the Northwest
Visibility 10 km or more
no clouds below 1500 m and no cumulonimbus
Becoming
from 25 at 08 UTC to 25 at 10 UTC
Visibility: 8000 m
volcanic ash
Becoming
from 25 at 12 UTC to 25 at 14 UTC
Wind 10 kt from the North/Northwest
Visibility 10 km or more
no clouds below 1500 m and no cumulonimbus
The information on this site is subject to a disclaimer
Weather : Europe Africa North America South America Asia Australia-Oceania Others
Satellite images 10-day forecastsClimateMarine weather Cyclones Lightning AirportsFAQ Languages Contact Newsletter About